In Rescue
 
Open Full Screen Window  High Contrast Mode
Wind Gusting 00 knots
05
April 02, 2020 11:10 PM EDT
Weather Information
Wind Direction
  350 °
Wind Speed
  05 kt (6 mph)
Wind Gust
  00 kt (0 mph)
Altimeter
30.07 in
Visibility
10 SM
Temperature
06° C
43° F
Dewpoint
-01° C
30° F
Humidity
61%
Sky Condition
Clear
VFR

METAR KHYX 030310Z AUTO 35005KT 10SM CLR 06/M01 A3007 RMK AO2

FAA Disclaimer: The data displayed is for advisory purposes only and is not to be used for flight planning or operations.